createdAt,value
2022-12-19T00:01:52.814Z,3.60
2022-12-19T00:04:21.266Z,3.60
2022-12-19T00:06:48.274Z,3.60
2022-12-19T00:09:15.234Z,3.70
2022-12-19T00:11:42.351Z,3.60
2022-12-19T00:14:12.187Z,3.70
2022-12-19T00:16:39.408Z,3.70
2022-12-19T00:19:06.773Z,3.70
2022-12-19T00:21:35.484Z,3.70
2022-12-19T00:24:20.095Z,3.70
2022-12-19T00:26:49.258Z,3.70
2022-12-19T00:29:16.727Z,3.70
2022-12-19T00:31:45.571Z,3.70
2022-12-19T00:34:15.052Z,3.80
2022-12-19T00:36:42.661Z,3.80
2022-12-19T00:39:11.656Z,3.80
2022-12-19T00:41:41.897Z,3.80
2022-12-19T00:44:14.462Z,3.90
2022-12-19T00:46:41.983Z,3.80
2022-12-19T00:49:09.040Z,3.80
2022-12-19T00:51:37.618Z,3.90
2022-12-19T00:54:10.619Z,3.90
2022-12-19T00:56:38.975Z,3.90
2022-12-19T00:59:10.540Z,3.90
2022-12-19T01:01:40.479Z,3.90
2022-12-19T01:04:28.801Z,3.90
2022-12-19T01:07:01.585Z,3.90
2022-12-19T01:09:32.890Z,4.00
2022-12-19T01:12:18.289Z,4.00
2022-12-19T01:14:45.635Z,4.00
2022-12-19T01:17:12.687Z,4.00
2022-12-19T01:19:44.047Z,4.00
2022-12-19T01:22:13.130Z,4.00
2022-12-19T01:24:40.518Z,4.10
2022-12-19T01:27:08.073Z,4.10
2022-12-19T01:29:36.694Z,4.10
2022-12-19T01:32:11.507Z,4.20
2022-12-19T01:34:38.410Z,4.20
2022-12-19T01:37:05.392Z,4.20
2022-12-19T01:39:32.422Z,4.20
2022-12-19T01:42:01.185Z,4.20
2022-12-19T01:44:28.762Z,4.30
2022-12-19T01:46:58.491Z,4.30
2022-12-19T01:49:31.430Z,4.30
2022-12-19T01:52:02.654Z,4.30
2022-12-19T01:54:33.386Z,4.30
2022-12-19T01:57:03.525Z,4.40
2022-12-19T01:59:43.017Z,4.40
2022-12-19T02:02:14.764Z,4.40
2022-12-19T02:04:43.510Z,4.40
2022-12-19T02:07:15.819Z,4.40
2022-12-19T02:09:51.910Z,4.40
2022-12-19T02:12:33.745Z,4.50
2022-12-19T02:15:03.160Z,4.50
2022-12-19T02:17:42.464Z,4.40
2022-12-19T02:20:35.772Z,4.50
2022-12-19T02:23:30.424Z,4.50
2022-12-19T02:26:10.164Z,4.50
2022-12-19T02:29:00.116Z,4.50
2022-12-19T02:31:35.836Z,4.50
2022-12-19T02:34:18.111Z,4.60
2022-12-19T02:37:09.086Z,4.60
2022-12-19T02:39:49.087Z,4.60
2022-12-19T02:42:25.456Z,4.60
2022-12-19T02:44:55.511Z,4.70
2022-12-19T02:47:22.816Z,4.70
2022-12-19T02:49:49.932Z,4.70
2022-12-19T02:52:37.496Z,4.70
2022-12-19T02:55:12.447Z,4.70
2022-12-19T02:58:14.931Z,4.80
2022-12-19T03:01:05.824Z,4.80
2022-12-19T03:03:34.188Z,4.80
2022-12-19T03:06:09.220Z,4.80
2022-12-19T03:09:02.828Z,4.80
2022-12-19T03:11:35.825Z,4.80
2022-12-19T03:14:09.941Z,4.80
2022-12-19T03:16:38.148Z,4.80
2022-12-19T03:19:10.482Z,4.80
2022-12-19T03:21:41.430Z,4.90
2022-12-19T03:24:11.481Z,4.90
2022-12-19T03:27:07.831Z,4.80
2022-12-19T03:29:41.136Z,4.90
2022-12-19T03:32:12.398Z,4.90
2022-12-19T03:34:47.666Z,4.90
2022-12-19T03:37:20.056Z,4.90
2022-12-19T03:39:53.554Z,4.90
2022-12-19T03:42:41.397Z,4.90
2022-12-19T03:45:09.847Z,4.90
2022-12-19T03:47:47.985Z,4.90
2022-12-19T03:50:15.552Z,4.90
2022-12-19T03:52:48.268Z,4.90
2022-12-19T03:55:23.866Z,5.00
2022-12-19T03:57:53.734Z,5.00
2022-12-19T04:00:21.458Z,5.00
2022-12-19T04:02:50.957Z,5.00
2022-12-19T04:05:28.376Z,5.00
2022-12-19T04:08:04.465Z,5.00
2022-12-19T04:10:37.127Z,5.00
2022-12-19T04:13:11.929Z,5.10
2022-12-19T04:16:21.213Z,5.10
2022-12-19T04:18:56.424Z,5.20
2022-12-19T04:21:31.679Z,5.20
2022-12-19T04:24:06.112Z,5.20
2022-12-19T04:26:35.532Z,5.20
2022-12-19T04:29:05.909Z,5.20
2022-12-19T04:31:33.013Z,5.30
2022-12-19T04:34:00.232Z,5.30
2022-12-19T04:36:27.399Z,5.30
2022-12-19T04:38:54.566Z,5.30
2022-12-19T04:41:21.614Z,5.30
2022-12-19T04:43:48.562Z,5.40
2022-12-19T04:46:15.573Z,5.40
2022-12-19T04:48:42.565Z,5.40
2022-12-19T04:51:09.598Z,5.40
2022-12-19T04:53:36.550Z,5.40
2022-12-19T04:56:05.740Z,5.40
2022-12-19T04:58:33.769Z,5.40
2022-12-19T05:01:05.039Z,5.40
2022-12-19T05:03:33.156Z,5.40
2022-12-19T05:06:08.116Z,5.40
2022-12-19T05:08:36.069Z,5.40
2022-12-19T05:11:04.185Z,5.40
2022-12-19T05:13:31.209Z,5.40
2022-12-19T05:15:59.908Z,5.50
2022-12-19T05:18:27.845Z,5.50
2022-12-19T05:20:54.889Z,5.50
2022-12-19T05:23:22.789Z,5.50
2022-12-19T05:25:50.214Z,5.50
2022-12-19T05:28:17.931Z,5.50
2022-12-19T05:30:51.933Z,5.50
2022-12-19T05:33:19.387Z,5.50
2022-12-19T05:35:47.825Z,5.60
2022-12-19T05:38:14.781Z,5.60
2022-12-19T05:40:42.128Z,5.60
2022-12-19T05:43:09.217Z,5.60
2022-12-19T05:45:40.000Z,5.60
2022-12-19T05:48:06.951Z,5.60
2022-12-19T05:50:36.651Z,5.70
2022-12-19T05:53:09.587Z,5.70
2022-12-19T05:55:36.654Z,5.70
2022-12-19T05:58:03.556Z,5.70
2022-12-19T06:00:30.612Z,5.70
2022-12-19T06:02:57.732Z,5.70
2022-12-19T06:05:24.813Z,5.70
2022-12-19T06:07:51.727Z,5.70
2022-12-19T06:10:18.833Z,5.80
2022-12-19T06:12:45.835Z,5.80
2022-12-19T06:15:12.842Z,5.80
2022-12-19T06:17:39.825Z,5.80
2022-12-19T06:20:07.366Z,5.90
2022-12-19T06:22:35.172Z,5.90
2022-12-19T06:25:02.284Z,5.90
2022-12-19T06:27:29.832Z,5.90
2022-12-19T06:29:56.798Z,5.90
2022-12-19T06:32:23.764Z,5.90
2022-12-19T06:35:06.131Z,5.90
2022-12-19T06:37:33.225Z,5.90
2022-12-19T06:40:00.137Z,6.00
2022-12-19T06:42:27.275Z,6.00
2022-12-19T06:44:56.164Z,6.00
2022-12-19T06:47:24.608Z,6.00
2022-12-19T06:49:51.776Z,6.10
2022-12-19T06:52:19.044Z,6.00
2022-12-19T06:54:46.016Z,6.00
2022-12-19T06:57:13.202Z,6.00
2022-12-19T06:59:40.200Z,6.10
2022-12-19T07:02:30.082Z,6.10
2022-12-19T07:05:07.415Z,6.10
2022-12-19T07:07:34.572Z,6.10
2022-12-19T07:10:01.561Z,6.10
2022-12-19T07:12:28.578Z,6.10
2022-12-19T07:14:55.559Z,6.10
2022-12-19T07:17:24.373Z,6.10
2022-12-19T07:19:53.544Z,6.20
2022-12-19T07:22:21.018Z,6.20
2022-12-19T07:24:48.167Z,6.20
2022-12-19T07:27:15.305Z,6.20
2022-12-19T07:29:42.244Z,6.20
2022-12-19T07:32:09.276Z,6.30
2022-12-19T07:34:36.283Z,6.30
2022-12-19T07:37:03.271Z,6.30
2022-12-19T07:39:30.217Z,6.30
2022-12-19T07:41:57.276Z,6.30
2022-12-19T07:44:33.636Z,6.40
2022-12-19T07:47:00.662Z,6.40
2022-12-19T07:49:27.573Z,6.40
2022-12-19T07:51:54.595Z,6.40
2022-12-19T07:54:21.592Z,6.40
2022-12-19T07:56:48.707Z,6.40
2022-12-19T07:59:15.822Z,6.40
2022-12-19T08:01:43.204Z,6.50
2022-12-19T08:04:10.229Z,6.50
2022-12-19T08:06:41.066Z,6.50
2022-12-19T08:09:08.669Z,6.50
2022-12-19T08:11:35.739Z,6.50
2022-12-19T08:14:02.715Z,6.50
2022-12-19T08:16:29.982Z,6.50
2022-12-19T08:18:57.059Z,6.60
2022-12-19T08:21:25.349Z,6.60
2022-12-19T08:23:52.825Z,6.60
2022-12-19T08:26:25.470Z,6.60
2022-12-19T08:28:54.711Z,6.60
2022-12-19T08:31:25.073Z,6.60
2022-12-19T08:33:56.939Z,6.60
2022-12-19T08:36:24.801Z,6.60
2022-12-19T08:38:52.411Z,6.60
2022-12-19T08:41:19.576Z,6.60
2022-12-19T08:43:52.149Z,6.60
2022-12-19T08:46:20.620Z,6.60
2022-12-19T08:48:47.681Z,6.60
2022-12-19T08:51:15.892Z,6.60
2022-12-19T08:53:44.590Z,6.60
2022-12-19T08:56:16.999Z,6.60
2022-12-19T08:58:44.472Z,6.60
2022-12-19T09:01:14.696Z,6.70
2022-12-19T09:04:12.553Z,6.70
2022-12-19T09:06:29.316Z,6.70
2022-12-19T09:09:00.507Z,6.70
2022-12-19T09:11:28.129Z,6.70
2022-12-19T09:13:57.434Z,6.70
2022-12-19T09:16:27.475Z,6.70
2022-12-19T09:18:58.683Z,6.70
2022-12-19T09:21:31.597Z,6.70
2022-12-19T09:24:07.014Z,6.70
2022-12-19T09:26:35.296Z,6.80
2022-12-19T09:29:03.733Z,6.80
2022-12-19T09:31:38.218Z,6.80
2022-12-19T09:34:05.208Z,6.90
2022-12-19T09:36:32.386Z,6.90
2022-12-19T09:39:00.104Z,6.90
2022-12-19T09:41:27.061Z,6.90
2022-12-19T09:44:12.738Z,6.90
2022-12-19T09:46:47.670Z,6.90
2022-12-19T09:49:45.527Z,6.90
2022-12-19T09:52:15.263Z,7.00
2022-12-19T09:54:44.317Z,7.00
2022-12-19T09:57:18.254Z,7.00
2022-12-19T09:59:58.316Z,7.00
2022-12-19T10:02:42.082Z,7.10
2022-12-19T10:05:41.189Z,7.10
2022-12-19T10:08:08.953Z,7.10
2022-12-19T10:12:41.241Z,7.10
2022-12-19T10:14:01.868Z,7.20
2022-12-19T10:17:22.126Z,7.20
2022-12-19T10:20:03.460Z,7.30
2022-12-19T10:22:50.670Z,7.30
2022-12-19T10:25:42.728Z,7.30
2022-12-19T10:28:33.066Z,7.40
2022-12-19T10:31:19.116Z,7.40
2022-12-19T10:34:17.355Z,7.40
2022-12-19T10:37:20.966Z,7.40
2022-12-19T10:40:06.486Z,7.40
2022-12-19T10:42:58.653Z,7.40
2022-12-19T10:45:42.070Z,7.40
2022-12-19T10:48:20.868Z,7.40
2022-12-19T10:50:52.267Z,7.40
2022-12-19T10:53:30.079Z,7.40
2022-12-19T10:56:02.533Z,7.40
2022-12-19T10:58:38.063Z,7.40
2022-12-19T11:01:15.739Z,7.40
2022-12-19T11:03:46.853Z,7.40
2022-12-19T11:06:41.962Z,7.30
2022-12-19T11:09:28.192Z,7.30
2022-12-19T11:15:53.909Z,7.30
2022-12-19T11:19:27.493Z,7.30
2022-12-19T11:27:48.677Z,7.30
2022-12-19T11:29:42.359Z,7.30
2022-12-19T11:30:38.458Z,7.30
2022-12-19T11:30:43.935Z,7.30
2022-12-19T11:32:45.435Z,7.30
2022-12-19T11:35:36.755Z,7.30
2022-12-19T11:38:06.835Z,7.30
2022-12-19T11:40:44.643Z,7.30
2022-12-19T11:43:57.062Z,7.30
2022-12-19T11:46:30.341Z,7.30
2022-12-19T11:49:12.744Z,7.30
2022-12-19T11:51:42.512Z,7.30
2022-12-19T11:54:30.570Z,7.30
2022-12-19T11:56:57.936Z,7.30
2022-12-19T11:59:38.715Z,7.40
2022-12-19T12:02:26.876Z,7.40
2022-12-19T12:05:12.572Z,7.40
2022-12-19T12:08:55.147Z,7.40
2022-12-19T12:15:28.078Z,7.40
2022-12-19T12:20:01.325Z,7.50
2022-12-19T12:27:04.771Z,7.40
2022-12-19T12:31:15.240Z,7.50
2022-12-19T12:31:16.047Z,7.50
2022-12-19T12:31:23.449Z,7.50
2022-12-19T12:31:49.213Z,7.60
2022-12-19T12:35:42.377Z,7.60
2022-12-19T12:38:18.647Z,7.60
2022-12-19T12:41:04.540Z,7.60
2022-12-19T12:43:53.083Z,7.70
2022-12-19T12:46:27.392Z,7.70
2022-12-19T12:49:03.165Z,7.80
2022-12-19T12:51:33.328Z,7.80
2022-12-19T12:54:07.621Z,7.80
2022-12-19T12:56:36.634Z,7.80
2022-12-19T12:59:17.941Z,7.90
2022-12-19T13:01:54.495Z,7.80
2022-12-19T13:04:34.958Z,7.80
2022-12-19T13:07:16.430Z,7.80
2022-12-19T13:09:43.850Z,7.90
2022-12-19T13:12:46.441Z,7.80
2022-12-19T13:15:29.972Z,7.90
2022-12-19T13:17:56.995Z,7.80
2022-12-19T13:20:23.927Z,7.80
2022-12-19T13:23:00.840Z,7.90
2022-12-19T13:25:31.364Z,7.90
2022-12-19T13:28:14.717Z,7.90
2022-12-19T13:31:19.372Z,7.80
2022-12-19T13:33:56.149Z,7.90
2022-12-19T13:39:50.170Z,7.80
2022-12-19T13:40:01.730Z,7.80
2022-12-19T13:42:52.257Z,7.80
2022-12-19T13:45:30.775Z,7.80
2022-12-19T13:48:00.871Z,7.80
2022-12-19T13:50:27.833Z,7.80
2022-12-19T13:52:54.913Z,7.80
2022-12-19T13:55:22.375Z,7.80
2022-12-19T13:57:53.297Z,7.80
2022-12-19T14:00:29.564Z,7.80
2022-12-19T14:02:58.792Z,7.80
2022-12-19T14:06:16.561Z,7.80
2022-12-19T14:08:27.445Z,7.80
2022-12-19T14:11:40.992Z,7.80
2022-12-19T14:14:20.428Z,7.80
2022-12-19T14:16:51.872Z,7.70
2022-12-19T14:19:23.504Z,7.80
2022-12-19T14:22:08.004Z,7.80
2022-12-19T14:24:38.846Z,7.70
2022-12-19T14:28:18.617Z,7.80
2022-12-19T14:30:28.033Z,7.80
2022-12-19T14:33:43.871Z,7.90
2022-12-19T14:36:10.557Z,7.80
2022-12-19T14:39:22.660Z,7.90
2022-12-19T14:42:00.358Z,7.90
2022-12-19T14:52:51.102Z,7.90
2022-12-19T14:54:06.782Z,7.90
2022-12-19T14:54:09.327Z,7.90
2022-12-19T14:54:38.005Z,7.90
2022-12-19T14:59:01.715Z,7.90
2022-12-19T15:01:34.892Z,7.90
2022-12-19T15:04:50.817Z,7.90
2022-12-19T15:07:11.302Z,7.90
2022-12-19T15:11:03.012Z,7.90
2022-12-19T15:14:57.901Z,7.90
2022-12-19T15:16:06.424Z,7.90
2022-12-19T15:18:33.542Z,7.90
2022-12-19T15:21:04.166Z,7.90
2022-12-19T15:23:31.936Z,7.90
2022-12-19T15:26:07.130Z,7.90
2022-12-19T15:28:46.341Z,7.90
2022-12-19T15:31:38.541Z,7.90
2022-12-19T15:34:35.029Z,7.90
2022-12-19T15:37:04.201Z,7.90
2022-12-19T15:39:31.342Z,7.80
2022-12-19T15:42:00.384Z,7.90
2022-12-19T15:44:39.645Z,7.80
2022-12-19T15:47:15.895Z,7.80
2022-12-19T15:49:43.081Z,7.70
2022-12-19T15:52:19.969Z,7.70
2022-12-19T15:54:49.667Z,7.70
2022-12-19T15:57:38.588Z,7.70
2022-12-19T16:00:16.344Z,7.70
2022-12-19T16:03:21.072Z,7.60
2022-12-19T16:05:30.546Z,7.60
2022-12-19T16:07:58.863Z,7.60
2022-12-19T16:10:26.494Z,7.60
2022-12-19T16:12:55.837Z,7.60
2022-12-19T16:15:31.222Z,7.70
2022-12-19T16:18:00.895Z,7.70
2022-12-19T16:20:36.021Z,7.70
2022-12-19T16:23:03.237Z,7.70
2022-12-19T16:25:44.741Z,7.70
2022-12-19T16:28:23.579Z,7.70
2022-12-19T16:30:50.945Z,7.70
2022-12-19T16:33:21.563Z,7.80
2022-12-19T16:36:07.010Z,7.80
2022-12-19T16:38:35.395Z,7.80
2022-12-19T16:41:02.667Z,7.90
2022-12-19T16:43:40.357Z,7.90
2022-12-19T16:46:10.977Z,7.90
2022-12-19T16:48:38.237Z,7.90
2022-12-19T16:51:05.259Z,7.90
2022-12-19T16:53:32.378Z,7.90
2022-12-19T16:56:00.862Z,7.90
2022-12-19T16:58:29.385Z,7.90
2022-12-19T17:00:56.909Z,7.90
2022-12-19T17:03:30.150Z,7.80
2022-12-19T17:05:57.326Z,7.80
2022-12-19T17:08:24.728Z,7.80
2022-12-19T17:10:53.668Z,7.80
2022-12-19T17:13:22.456Z,7.80
2022-12-19T17:15:56.378Z,7.80
2022-12-19T17:18:35.800Z,7.90
2022-12-19T17:21:03.162Z,7.90
2022-12-19T17:23:32.569Z,7.80
2022-12-19T17:26:00.882Z,7.80
2022-12-19T17:28:28.895Z,7.80
2022-12-19T17:30:58.929Z,7.90
2022-12-19T17:33:33.378Z,7.80
2022-12-19T17:36:05.450Z,7.90
2022-12-19T17:38:33.363Z,7.90
2022-12-19T17:41:00.438Z,7.90
2022-12-19T17:43:27.420Z,7.80
2022-12-19T17:45:54.456Z,7.80
2022-12-19T17:48:25.120Z,7.80
2022-12-19T17:50:53.100Z,7.80
2022-12-19T17:53:20.606Z,7.90
2022-12-19T17:55:47.750Z,7.80
2022-12-19T17:58:14.781Z,7.90
2022-12-19T18:00:43.257Z,7.90
2022-12-19T18:03:24.735Z,7.90
2022-12-19T18:05:53.941Z,8.00
2022-12-19T18:08:30.968Z,8.00
2022-12-19T18:11:00.618Z,8.00
2022-12-19T18:13:29.701Z,8.10
2022-12-19T18:15:59.520Z,8.20
2022-12-19T18:18:31.893Z,8.10
2022-12-19T18:21:03.085Z,8.20
2022-12-19T18:23:33.354Z,8.20
2022-12-19T18:26:02.378Z,8.30
2022-12-19T18:28:30.499Z,8.30
2022-12-19T18:31:13.610Z,8.40
2022-12-19T18:33:43.573Z,8.40
2022-12-19T18:36:22.864Z,8.40
2022-12-19T18:38:50.438Z,8.40
2022-12-19T18:41:18.334Z,8.40
2022-12-19T18:43:45.815Z,8.40
2022-12-19T18:46:15.318Z,8.40
2022-12-19T18:48:44.314Z,8.40
2022-12-19T18:51:17.311Z,8.40
2022-12-19T18:53:45.753Z,8.50
2022-12-19T18:56:13.094Z,8.50
2022-12-19T18:58:40.317Z,8.40
2022-12-19T19:01:15.535Z,8.50
2022-12-19T19:03:48.775Z,8.50
2022-12-19T19:06:25.695Z,8.50
2022-12-19T19:08:53.111Z,8.50
2022-12-19T19:11:38.447Z,8.50
2022-12-19T19:14:05.505Z,8.50
2022-12-19T19:16:32.802Z,8.50
2022-12-19T19:19:01.073Z,8.50
2022-12-19T19:21:32.491Z,8.50
2022-12-19T19:24:06.016Z,8.50
2022-12-19T19:26:33.149Z,8.50
2022-12-19T19:29:00.166Z,8.50
2022-12-19T19:31:29.374Z,8.50
2022-12-19T19:34:00.859Z,8.40
2022-12-19T19:36:31.155Z,8.40
2022-12-19T19:38:59.203Z,8.40
2022-12-19T19:41:30.248Z,8.40
2022-12-19T19:43:59.836Z,8.40
2022-12-19T19:46:27.614Z,8.40
2022-12-19T19:48:55.078Z,8.40
2022-12-19T19:51:22.039Z,8.40
2022-12-19T19:53:49.163Z,8.40
2022-12-19T19:56:16.481Z,8.40
2022-12-19T19:58:43.556Z,8.40
2022-12-19T20:01:11.955Z,8.40
2022-12-19T20:03:40.443Z,8.40
2022-12-19T20:06:08.065Z,8.40
2022-12-19T20:08:39.788Z,8.40
2022-12-19T20:11:08.424Z,8.40
2022-12-19T20:13:35.497Z,8.40
2022-12-19T20:16:04.989Z,8.40
2022-12-19T20:18:32.547Z,8.40
2022-12-19T20:20:59.483Z,8.40
2022-12-19T20:23:26.559Z,8.40
2022-12-19T20:25:53.661Z,8.40
2022-12-19T20:28:20.656Z,8.40
2022-12-19T20:30:47.649Z,8.40
2022-12-19T20:33:14.699Z,8.40
2022-12-19T20:35:42.588Z,8.40
2022-12-19T20:38:12.076Z,8.40
2022-12-19T20:40:39.348Z,8.40
2022-12-19T20:43:06.475Z,8.40
2022-12-19T20:45:33.595Z,8.40
2022-12-19T20:48:00.666Z,8.40
2022-12-19T20:50:28.116Z,8.40
2022-12-19T20:52:56.693Z,8.40
2022-12-19T20:55:24.044Z,8.40
2022-12-19T20:57:51.023Z,8.40
2022-12-19T21:00:18.684Z,8.40
2022-12-19T21:03:25.853Z,8.40
2022-12-19T21:05:32.706Z,8.40
2022-12-19T21:07:59.669Z,8.40
2022-12-19T21:10:26.634Z,8.30
2022-12-19T21:12:54.179Z,8.40
2022-12-19T21:15:21.203Z,8.40
2022-12-19T21:17:48.157Z,8.40
2022-12-19T21:20:15.465Z,8.40
2022-12-19T21:22:42.490Z,8.30
2022-12-19T21:25:09.600Z,8.40
2022-12-19T21:27:36.518Z,8.30
2022-12-19T21:30:05.257Z,8.30
2022-12-19T21:32:32.373Z,8.30
2022-12-19T21:34:59.380Z,8.30
2022-12-19T21:37:26.374Z,8.30
2022-12-19T21:39:53.353Z,8.20
2022-12-19T21:42:20.307Z,8.30
2022-12-19T21:44:47.350Z,8.30
2022-12-19T21:47:14.363Z,8.30
2022-12-19T21:49:41.407Z,8.30
2022-12-19T21:52:08.425Z,8.30
2022-12-19T21:54:35.349Z,8.30
2022-12-19T21:57:02.375Z,8.40
2022-12-19T21:59:29.483Z,8.40
2022-12-19T22:01:56.607Z,8.40
2022-12-19T22:04:26.528Z,8.40
2022-12-19T22:06:53.811Z,8.40
2022-12-19T22:09:24.997Z,8.40
2022-12-19T22:11:52.034Z,8.40
2022-12-19T22:14:19.050Z,8.40
2022-12-19T22:16:46.161Z,8.40
2022-12-19T22:19:17.820Z,8.40
2022-12-19T22:21:46.776Z,8.40
2022-12-19T22:24:15.148Z,8.50
2022-12-19T22:26:42.501Z,8.40
2022-12-19T22:29:13.267Z,8.40
2022-12-19T22:31:41.510Z,8.40
2022-12-19T22:34:11.585Z,8.40
2022-12-19T22:36:39.946Z,8.50
2022-12-19T22:39:10.031Z,8.60
2022-12-19T22:41:38.071Z,8.60
2022-12-19T22:44:05.651Z,8.70
2022-12-19T22:46:37.717Z,8.70
2022-12-19T22:49:07.200Z,8.70
2022-12-19T22:51:36.486Z,8.80
2022-12-19T22:54:04.684Z,8.80
2022-12-19T22:56:32.782Z,8.80
2022-12-19T22:59:02.496Z,8.80
2022-12-19T23:01:35.719Z,8.80
2022-12-19T23:04:04.046Z,8.90
2022-12-19T23:06:33.655Z,8.80
2022-12-19T23:09:01.149Z,8.90
2022-12-19T23:11:32.652Z,8.80
2022-12-19T23:14:03.018Z,8.80
2022-12-19T23:16:30.311Z,8.80
2022-12-19T23:18:57.564Z,8.80
2022-12-19T23:21:25.532Z,8.80
2022-12-19T23:23:54.425Z,8.80
2022-12-19T23:26:27.656Z,8.80
2022-12-19T23:29:02.715Z,8.90
2022-12-19T23:31:30.213Z,8.80
2022-12-19T23:33:58.358Z,8.80
2022-12-19T23:37:09.155Z,8.80
2022-12-19T23:39:13.689Z,8.80
2022-12-19T23:41:41.325Z,8.90
2022-12-19T23:44:09.581Z,8.90
2022-12-19T23:46:37.017Z,8.80
2022-12-19T23:49:04.488Z,8.90
2022-12-19T23:51:31.962Z,8.80
2022-12-19T23:53:58.951Z,8.80
2022-12-19T23:56:28.239Z,8.80
2022-12-19T23:58:56.221Z,8.80
